Time;durP1;ratioP1;P1;durP2;ratioP2;P2;SDS_P1;SDS_P2;PMS_P1;PMS_P2;Temp;Humidity;BMP_temperature;BMP_pressure;BME280_temperature;BME280_humidity;BME280_pressure;Samples;Min_cycle;Max_cycle;Signal;HPM_P1;HPM_P2
2021/03/13 00:01:44;;;;;;;1.60;0.97;;;19.00;22.50;;;;;;5114045;28;20188;-56
2021/03/13 00:04:13;;;;;;;0.80;0.70;;;19.00;22.50;;;;;;5114342;28;20158;-55
2021/03/13 00:06:38;;;;;;;1.30;0.60;;;18.90;22.50;;;;;;5114125;28;20180;-55
2021/03/13 00:09:04;;;;;;;0.97;0.80;;;18.90;22.50;;;;;;5113913;28;20181;-55
2021/03/13 00:11:30;;;;;;;0.80;0.70;;;18.90;22.50;;;;;;5114053;28;20624;-54
2021/03/13 00:13:55;;;;;;;0.87;0.70;;;18.90;22.50;;;;;;5113927;28;20153;-55
2021/03/13 00:16:21;;;;;;;0.90;0.70;;;18.90;22.50;;;;;;5114462;28;20215;-55
2021/03/13 00:18:47;;;;;;;1.00;0.80;;;18.90;22.50;;;;;;5114009;28;20157;-55
2021/03/13 00:21:12;;;;;;;1.10;0.80;;;18.90;22.50;;;;;;5113652;28;20684;-56
2021/03/13 00:23:38;;;;;;;1.70;0.87;;;18.90;22.50;;;;;;5113446;28;20251;-55
2021/03/13 00:26:04;;;;;;;1.70;1.10;;;18.90;22.50;;;;;;5118550;28;20188;-55
2021/03/13 00:28:29;;;;;;;0.90;0.73;;;18.90;22.50;;;;;;5134463;28;20157;-55
2021/03/13 00:30:55;;;;;;;1.20;0.70;;;18.90;22.50;;;;;;5134492;28;20148;-55
2021/03/13 00:33:28;;;;;;;1.03;0.80;;;18.90;22.50;;;;;;5116452;28;20315;-55
2021/03/13 00:35:54;;;;;;;0.80;0.70;;;18.90;22.60;;;;;;5134633;28;20152;-55
2021/03/13 00:38:21;;;;;;;1.77;0.93;;;18.90;22.60;;;;;;5116404;27;20172;-56
2021/03/13 00:40:48;;;;;;;0.77;0.70;;;18.90;22.50;;;;;;5138815;27;20417;-56
2021/03/13 00:43:14;;;;;;;1.30;1.20;;;18.90;22.60;;;;;;5138527;27;20241;-55
2021/03/13 00:45:43;;;;;;;1.08;0.80;;;18.90;22.50;;;;;;5138806;27;20176;-55
2021/03/13 00:48:10;;;;;;;1.20;1.02;;;18.90;22.60;;;;;;5138813;27;20235;-55
2021/03/13 00:50:38;;;;;;;1.00;0.88;;;18.90;22.60;;;;;;5138521;27;20167;-55
2021/03/13 00:53:04;;;;;;;1.50;0.85;;;18.90;22.50;;;;;;5138012;27;20171;-55
2021/03/13 00:55:31;;;;;;;1.70;0.63;;;18.90;22.50;;;;;;5138494;27;20161;-55
2021/03/13 00:57:57;;;;;;;1.83;0.80;;;18.90;22.50;;;;;;5134091;27;20169;-55
2021/03/13 01:00:24;;;;;;;0.83;0.80;;;18.90;22.50;;;;;;5117698;28;20275;-55
2021/03/13 01:02:51;;;;;;;1.20;0.63;;;18.90;22.50;;;;;;5117665;28;20154;-55
2021/03/13 01:05:17;;;;;;;1.00;0.90;;;18.90;22.50;;;;;;5117595;28;20172;-55
2021/03/13 01:07:43;;;;;;;1.00;0.75;;;18.90;22.50;;;;;;5117638;28;20562;-55
2021/03/13 01:10:34;;;;;;;0.85;0.68;;;18.90;22.50;;;;;;5116902;28;20145;-54
2021/03/13 01:13:00;;;;;;;0.75;0.70;;;18.90;22.50;;;;;;5117001;28;20188;-54
2021/03/13 01:15:29;;;;;;;0.75;0.70;;;18.90;22.50;;;;;;5097231;28;20252;-55
2021/03/13 01:17:55;;;;;;;1.15;0.80;;;18.90;22.50;;;;;;5097091;28;20166;-55
2021/03/13 01:20:22;;;;;;;0.73;0.70;;;18.90;22.50;;;;;;5096980;28;20546;-55
2021/03/13 01:22:51;;;;;;;0.93;0.70;;;18.90;22.50;;;;;;5096913;28;20825;-55
2021/03/13 01:25:17;;;;;;;0.95;0.70;;;18.90;22.50;;;;;;5096999;28;20188;-55
2021/03/13 01:27:44;;;;;;;0.75;0.65;;;18.80;22.40;;;;;;5134353;27;20189;-55
2021/03/13 01:30:20;;;;;;;1.05;0.75;;;18.90;22.50;;;;;;5116782;28;20156;-55
2021/03/13 01:32:50;;;;;;;0.90;0.60;;;18.80;22.50;;;;;;5117427;28;20153;-55
2021/03/13 01:35:16;;;;;;;1.20;0.80;;;18.80;22.50;;;;;;5117215;28;20240;-55
2021/03/13 01:37:42;;;;;;;1.13;1.02;;;18.80;22.50;;;;;;5117336;28;20167;-55
2021/03/13 01:40:16;;;;;;;1.15;0.90;;;18.80;22.50;;;;;;5116911;28;20160;-55
2021/03/13 01:42:46;;;;;;;1.30;1.00;;;18.80;22.50;;;;;;5116931;28;20153;-54
2021/03/13 01:45:14;;;;;;;0.95;0.85;;;18.80;23.00;;;;;;5116697;28;20153;-55
2021/03/13 01:47:47;;;;;;;0.80;0.80;;;18.80;22.50;;;;;;5116740;28;20168;-54
2021/03/13 01:50:17;;;;;;;1.13;0.73;;;18.80;22.50;;;;;;5115743;28;20600;-54
2021/03/13 01:52:46;;;;;;;0.80;0.70;;;18.80;22.50;;;;;;5116994;28;20153;-55
2021/03/13 01:55:12;;;;;;;1.75;0.60;;;18.80;22.50;;;;;;5116670;28;20168;-55
2021/03/13 01:57:38;;;;;;;0.90;0.77;;;18.80;22.50;;;;;;5116748;28;20603;-54
2021/03/13 02:00:10;;;;;;;1.37;0.70;;;18.80;22.50;;;;;;5116070;28;20406;-55
2021/03/13 02:02:36;;;;;;;1.15;0.70;;;18.80;22.50;;;;;;5098371;28;20419;-55
2021/03/13 02:05:06;;;;;;;0.90;0.70;;;18.80;22.50;;;;;;5116504;28;20157;-55
2021/03/13 02:07:45;;;;;;;1.02;0.65;;;18.80;22.50;;;;;;5116703;28;20145;-55
2021/03/13 02:10:35;;;;;;;0.93;0.82;;;18.80;22.50;;;;;;5116262;28;20646;-55
2021/03/13 02:13:12;;;;;;;1.88;0.70;;;18.80;22.50;;;;;;5116579;28;20153;-55
2021/03/13 02:15:57;;;;;;;0.60;0.52;;;18.80;23.10;;;;;;5116291;28;20153;-55
2021/03/13 02:18:45;;;;;;;1.35;0.80;;;18.80;22.50;;;;;;5116478;28;20500;-55
2021/03/13 02:21:16;;;;;;;0.90;0.70;;;18.80;22.50;;;;;;5115904;28;20671;-56
2021/03/13 02:24:13;;;;;;;1.00;0.75;;;18.80;22.50;;;;;;5116009;28;20600;-55
2021/03/13 02:26:38;;;;;;;1.00;0.90;;;18.80;22.50;;;;;;5087582;28;20510;-54
2021/03/13 02:29:36;;;;;;;0.77;0.70;;;18.80;22.50;;;;;;5115667;28;20161;-55
2021/03/13 02:32:41;;;;;;;1.30;1.02;;;18.80;22.50;;;;;;5116476;28;20161;-55
2021/03/13 02:35:10;;;;;;;1.30;0.65;;;18.80;22.50;;;;;;5112615;28;20184;-55
2021/03/13 02:37:41;;;;;;;1.13;0.80;;;18.70;22.50;;;;;;5115992;28;20282;-55
2021/03/13 02:40:08;;;;;;;1.83;1.02;;;18.80;22.50;;;;;;5115847;28;20161;-55
2021/03/13 02:42:43;;;;;;;0.73;0.57;;;18.70;22.50;;;;;;5115828;28;20233;-55
2021/03/13 02:45:10;;;;;;;0.90;0.80;;;18.80;22.50;;;;;;5115276;28;20242;-55
2021/03/13 02:47:40;;;;;;;0.85;0.80;;;18.80;22.50;;;;;;5116044;28;20546;-55
2021/03/13 02:50:07;;;;;;;1.10;0.80;;;18.80;22.60;;;;;;5115661;28;20615;-55
2021/03/13 02:52:35;;;;;;;0.70;0.70;;;18.80;22.60;;;;;;5115605;28;20157;-55
2021/03/13 02:55:02;;;;;;;0.70;0.60;;;18.70;22.50;;;;;;5115458;28;20187;-55
2021/03/13 02:57:29;;;;;;;1.10;0.90;;;18.70;22.50;;;;;;5115676;28;20699;-55
2021/03/13 02:59:56;;;;;;;0.82;0.68;;;18.70;22.50;;;;;;5115120;28;20175;-55
2021/03/13 03:02:22;;;;;;;0.82;0.60;;;18.70;22.50;;;;;;5115306;28;20195;-55
2021/03/13 03:04:50;;;;;;;0.95;0.75;;;18.70;22.50;;;;;;5115173;28;20162;-55
2021/03/13 03:07:16;;;;;;;1.17;0.60;;;18.70;22.50;;;;;;5115343;28;20158;-55
2021/03/13 03:09:43;;;;;;;0.70;0.65;;;18.70;22.50;;;;;;5115066;28;20157;-55
2021/03/13 03:12:10;;;;;;;0.77;0.77;;;18.70;22.50;;;;;;5115275;28;20162;-55
2021/03/13 03:14:40;;;;;;;1.20;0.73;;;18.70;22.50;;;;;;5130621;27;20207;-55
2021/03/13 03:17:07;;;;;;;0.80;0.70;;;18.70;22.50;;;;;;5115364;28;20184;-55
2021/03/13 03:19:36;;;;;;;0.80;0.50;;;18.70;22.50;;;;;;5114929;28;20157;-55
2021/03/13 03:22:02;;;;;;;1.00;0.90;;;18.70;22.50;;;;;;5114826;28;20312;-55
2021/03/13 03:24:28;;;;;;;0.90;0.80;;;18.70;22.50;;;;;;5115077;28;20671;-55
2021/03/13 03:26:54;;;;;;;1.30;0.90;;;18.70;22.50;;;;;;5126804;27;20408;-55
2021/03/13 03:29:20;;;;;;;1.50;1.07;;;18.70;22.50;;;;;;5135143;27;20156;-55
2021/03/13 03:31:46;;;;;;;0.90;0.70;;;18.70;22.50;;;;;;5135510;27;20373;-55
2021/03/13 03:34:11;;;;;;;0.87;0.70;;;18.70;22.50;;;;;;5135324;27;20931;-55
2021/03/13 03:36:37;;;;;;;2.30;0.60;;;18.70;22.50;;;;;;5135584;27;20191;-55
2021/03/13 03:39:04;;;;;;;0.87;0.80;;;18.70;22.50;;;;;;5135289;27;20251;-55
2021/03/13 03:41:35;;;;;;;1.65;1.00;;;18.70;22.50;;;;;;5135371;27;20188;-54
2021/03/13 03:44:18;;;;;;;1.05;0.70;;;18.70;22.50;;;;;;5134667;27;20156;-54
2021/03/13 03:46:43;;;;;;;0.80;0.60;;;18.70;22.50;;;;;;5135204;27;20596;-54
2021/03/13 03:49:13;;;;;;;0.70;0.60;;;18.70;22.50;;;;;;5135187;27;20163;-55
2021/03/13 03:51:39;;;;;;;1.13;0.68;;;18.70;22.50;;;;;;5134873;27;20402;-55
2021/03/13 03:54:10;;;;;;;0.93;0.80;;;18.70;22.50;;;;;;5135156;27;20163;-56
2021/03/13 03:56:39;;;;;;;0.70;0.70;;;18.70;22.50;;;;;;5135143;27;20235;-55
2021/03/13 03:59:07;;;;;;;0.80;0.73;;;18.70;22.50;;;;;;5134478;27;20148;-55
2021/03/13 04:01:33;;;;;;;0.82;0.70;;;18.70;22.50;;;;;;5134797;27;20204;-55
2021/03/13 04:04:01;;;;;;;0.80;0.80;;;18.70;22.50;;;;;;5134595;27;20195;-55
2021/03/13 04:06:27;;;;;;;1.00;0.80;;;18.70;22.50;;;;;;5117825;27;20433;-55
2021/03/13 04:09:03;;;;;;;0.80;0.70;;;18.70;22.60;;;;;;5114295;28;20157;-55
2021/03/13 04:11:30;;;;;;;1.05;0.63;;;18.70;22.50;;;;;;5114340;28;20160;-55
2021/03/13 04:14:00;;;;;;;0.90;0.60;;;18.70;22.50;;;;;;5113310;28;20149;-55
2021/03/13 04:16:28;;;;;;;1.13;0.85;;;18.70;22.50;;;;;;5114395;28;20508;-55
2021/03/13 04:18:55;;;;;;;1.05;0.70;;;18.70;22.50;;;;;;5113938;28;20665;-55
2021/03/13 04:21:21;;;;;;;0.70;0.60;;;18.70;22.50;;;;;;5114029;28;20216;-55
2021/03/13 04:23:48;;;;;;;0.70;0.60;;;18.70;22.50;;;;;;5114079;28;20267;-55
2021/03/13 04:26:19;;;;;;;0.98;0.70;;;18.70;22.50;;;;;;5120238;27;20945;-55
2021/03/13 04:28:48;;;;;;;1.50;0.80;;;18.70;22.40;;;;;;5134716;28;20168;-55
2021/03/13 04:31:16;;;;;;;0.70;0.57;;;18.70;22.50;;;;;;5134246;28;20248;-55
2021/03/13 04:33:47;;;;;;;0.70;0.60;;;18.70;22.40;;;;;;5134564;28;20209;-55
2021/03/13 04:36:13;;;;;;;1.10;0.80;;;18.70;22.40;;;;;;5134755;28;20172;-55
2021/03/13 04:38:43;;;;;;;0.60;0.50;;;18.70;22.40;;;;;;5134567;28;20163;-55
2021/03/13 04:41:10;;;;;;;1.25;1.02;;;18.70;22.40;;;;;;5134525;28;20182;-55
2021/03/13 04:43:37;;;;;;;1.05;0.93;;;18.70;22.40;;;;;;5134439;28;20164;-55
2021/03/13 04:46:05;;;;;;;0.80;0.50;;;18.70;22.40;;;;;;5134423;28;20149;-55
2021/03/13 04:48:33;;;;;;;0.80;0.60;;;18.70;22.40;;;;;;5134859;28;20573;-55
2021/03/13 04:51:01;;;;;;;1.00;0.70;;;18.70;22.40;;;;;;5134245;28;20623;-55
2021/03/13 04:53:27;;;;;;;1.10;0.70;;;18.70;22.40;;;;;;5134548;28;20212;-55
2021/03/13 04:55:53;;;;;;;0.80;0.65;;;18.70;22.40;;;;;;5116635;28;20172;-55
2021/03/13 04:58:19;;;;;;;1.00;0.90;;;18.70;22.40;;;;;;5113862;28;20157;-55
2021/03/13 05:00:46;;;;;;;1.17;0.73;;;18.70;22.40;;;;;;5113310;28;20185;-55
2021/03/13 05:03:15;;;;;;;1.02;0.70;;;18.70;22.30;;;;;;5113660;28;20572;-55
2021/03/13 05:05:46;;;;;;;0.90;0.70;;;18.70;22.30;;;;;;5113898;28;20157;-55
2021/03/13 05:08:14;;;;;;;0.98;0.88;;;18.70;22.40;;;;;;5113850;28;20161;-55
2021/03/13 05:10:40;;;;;;;0.88;0.57;;;18.70;22.30;;;;;;5113611;28;20185;-55
2021/03/13 05:13:06;;;;;;;0.90;0.60;;;18.70;22.30;;;;;;5113947;28;20633;-55
2021/03/13 05:15:31;;;;;;;0.80;0.60;;;18.70;22.40;;;;;;5113429;28;20173;-55
2021/03/13 05:17:57;;;;;;;0.70;0.50;;;18.70;22.30;;;;;;5113681;28;20531;-55
2021/03/13 05:20:23;;;;;;;0.90;0.60;;;18.70;22.30;;;;;;5113338;28;20687;-55
2021/03/13 05:22:53;;;;;;;1.00;0.73;;;18.70;22.30;;;;;;5113823;28;20200;-55
2021/03/13 05:25:18;;;;;;;1.00;0.70;;;18.70;22.30;;;;;;5113885;28;20605;-55
2021/03/13 05:27:45;;;;;;;1.40;0.70;;;18.70;22.30;;;;;;5136294;27;20161;-55
2021/03/13 05:30:11;;;;;;;0.88;0.65;;;18.70;22.30;;;;;;5137321;27;20441;-55
2021/03/13 05:32:38;;;;;;;1.50;0.60;;;18.70;22.30;;;;;;5137666;27;20145;-55
2021/03/13 05:35:08;;;;;;;0.80;0.60;;;18.70;22.30;;;;;;5137775;27;20527;-55
2021/03/13 05:37:35;;;;;;;0.55;0.55;;;18.70;22.30;;;;;;5123495;27;20177;-55
2021/03/13 05:40:00;;;;;;;0.63;0.52;;;18.70;22.30;;;;;;5117460;28;20512;-55
2021/03/13 05:42:27;;;;;;;0.80;0.57;;;18.70;22.30;;;;;;5116931;28;20636;-56
2021/03/13 05:44:55;;;;;;;0.77;0.70;;;18.70;22.30;;;;;;5116499;28;20180;-56
2021/03/13 05:47:21;;;;;;;0.90;0.55;;;18.70;22.30;;;;;;5117195;28;20156;-55
2021/03/13 05:50:07;;;;;;;1.00;0.85;;;18.70;22.30;;;;;;5116854;28;20181;-56
2021/03/13 05:52:35;;;;;;;1.00;0.82;;;18.70;22.30;;;;;;5117006;28;20652;-56
2021/03/13 05:55:06;;;;;;;1.20;0.80;;;18.70;22.30;;;;;;5116655;28;20169;-54
2021/03/13 05:57:32;;;;;;;0.70;0.68;;;18.70;22.30;;;;;;5117049;28;20149;-55
2021/03/13 05:59:58;;;;;;;2.87;0.60;;;18.70;22.30;;;;;;5116262;28;20513;-54
2021/03/13 06:02:24;;;;;;;1.00;0.87;;;18.70;22.30;;;;;;5116631;28;20450;-56
2021/03/13 06:04:51;;;;;;;0.70;0.60;;;18.80;22.30;;;;;;5116443;28;20165;-56
2021/03/13 06:07:24;;;;;;;1.30;0.57;;;18.70;22.30;;;;;;5116544;28;20153;-55
2021/03/13 06:09:51;;;;;;;0.80;0.55;;;18.70;22.30;;;;;;5116872;28;20157;-55
2021/03/13 06:12:17;;;;;;;1.65;0.70;;;18.70;22.30;;;;;;5116540;28;20153;-56
2021/03/13 06:14:46;;;;;;;1.00;0.90;;;18.70;22.30;;;;;;5115902;28;20326;-55
2021/03/13 06:17:12;;;;;;;1.08;0.70;;;18.70;22.30;;;;;;5116341;28;20434;-55
2021/03/13 06:19:56;;;;;;;0.90;0.60;;;18.70;22.20;;;;;;5116142;28;20616;-56
2021/03/13 06:22:31;;;;;;;0.70;0.60;;;18.80;22.30;;;;;;5116453;28;20663;-56
2021/03/13 06:25:21;;;;;;;0.80;0.70;;;18.80;22.30;;;;;;5116122;28;20160;-56
2021/03/13 06:27:50;;;;;;;1.17;0.70;;;18.70;22.20;;;;;;5088147;28;20196;-55
2021/03/13 06:30:17;;;;;;;0.60;0.40;;;18.70;22.20;;;;;;5095268;28;20146;-55
2021/03/13 06:32:44;;;;;;;0.70;0.60;;;18.70;22.20;;;;;;5095630;28;20162;-55
2021/03/13 06:35:30;;;;;;;0.95;0.68;;;18.70;22.20;;;;;;5095669;28;20179;-55
2021/03/13 06:38:12;;;;;;;0.90;0.70;;;18.80;22.30;;;;;;5095218;28;20236;-55
2021/03/13 06:40:38;;;;;;;1.50;0.90;;;18.80;22.30;;;;;;5095519;28;20234;-55
2021/03/13 06:43:29;;;;;;;1.67;0.75;;;18.80;22.30;;;;;;5095436;28;20170;-55
2021/03/13 06:46:11;;;;;;;1.45;0.68;;;18.80;22.30;;;;;;5094852;28;20195;-55
2021/03/13 06:48:45;;;;;;;1.58;0.70;;;18.80;22.20;;;;;;5095551;28;20501;-55
2021/03/13 06:51:39;;;;;;;0.60;0.50;;;18.80;22.20;;;;;;5095384;28;20157;-54
2021/03/13 06:54:16;;;;;;;0.90;0.80;;;18.80;22.20;;;;;;5095209;28;20684;-55
2021/03/13 06:56:52;;;;;;;0.82;0.60;;;18.80;22.20;;;;;;5095212;28;20158;-55
2021/03/13 06:59:23;;;;;;;0.70;0.50;;;18.80;22.80;;;;;;5094523;28;20675;-55
2021/03/13 07:02:00;;;;;;;0.70;0.55;;;18.80;22.20;;;;;;5093889;28;20218;-55
2021/03/13 07:04:44;;;;;;;1.02;0.80;;;18.80;22.20;;;;;;5094867;28;20146;-56
2021/03/13 07:07:30;;;;;;;0.70;0.52;;;18.80;22.20;;;;;;5095051;28;20154;-54
2021/03/13 07:09:57;;;;;;;1.15;0.80;;;18.80;22.20;;;;;;5094810;28;20256;-55
2021/03/13 07:12:36;;;;;;;0.60;0.40;;;18.80;22.20;;;;;;5094914;28;20162;-55
2021/03/13 07:15:18;;;;;;;0.60;0.50;;;18.80;22.10;;;;;;5094841;28;20348;-56
2021/03/13 07:17:51;;;;;;;0.60;0.50;;;18.80;22.10;;;;;;5115234;28;20160;-55
2021/03/13 07:20:30;;;;;;;0.80;0.60;;;18.80;22.10;;;;;;5114790;28;20212;-55
2021/03/13 07:23:04;;;;;;;0.85;0.60;;;18.80;22.10;;;;;;5115105;28;20154;-55
2021/03/13 07:25:30;;;;;;;0.90;0.57;;;18.80;22.60;;;;;;5115235;28;20157;-54
2021/03/13 07:28:01;;;;;;;0.70;0.50;;;18.90;22.10;;;;;;5094572;28;20161;-54
2021/03/13 07:30:29;;;;;;;0.90;0.80;;;18.80;22.00;;;;;;5094076;28;20233;-55
2021/03/13 07:33:13;;;;;;;0.93;0.80;;;18.80;22.00;;;;;;5076458;28;20244;-55
2021/03/13 07:35:46;;;;;;;1.13;0.70;;;18.90;22.40;;;;;;5094340;28;20166;-55
2021/03/13 07:38:14;;;;;;;1.10;0.85;;;18.80;22.00;;;;;;5094485;28;20199;-55
2021/03/13 07:40:43;;;;;;;0.75;0.70;;;18.90;22.00;;;;;;5093856;28;20182;-55
2021/03/13 07:43:14;;;;;;;1.27;0.55;;;18.90;22.00;;;;;;5093958;28;20233;-54
2021/03/13 07:45:41;;;;;;;0.90;0.55;;;18.90;22.00;;;;;;5093800;28;20146;-55
2021/03/13 07:48:14;;;;;;;0.80;0.68;;;18.90;22.00;;;;;;5093700;28;20187;-55
2021/03/13 07:50:46;;;;;;;1.05;0.60;;;18.90;21.90;;;;;;5094129;28;20154;-55
2021/03/13 07:53:13;;;;;;;0.60;0.50;;;18.90;21.90;;;;;;5093992;28;20166;-55
2021/03/13 07:55:38;;;;;;;0.90;0.70;;;18.90;21.90;;;;;;5094100;28;20165;-55
2021/03/13 07:58:08;;;;;;;0.90;0.70;;;18.90;21.90;;;;;;5094101;28;20158;-54
2021/03/13 08:00:47;;;;;;;0.90;0.70;;;18.90;21.90;;;;;;5093367;28;20912;-55
2021/03/13 08:03:29;;;;;;;1.10;0.80;;;18.90;22.40;;;;;;5094094;28;20157;-54
2021/03/13 08:06:01;;;;;;;1.02;0.73;;;19.00;21.80;;;;;;5101401;28;20171;-55
2021/03/13 08:08:44;;;;;;;0.90;0.65;;;19.00;21.80;;;;;;5114200;28;20153;-54
2021/03/13 08:11:13;;;;;;;0.80;0.52;;;19.00;21.80;;;;;;5114020;28;20283;-55
2021/03/13 08:13:42;;;;;;;0.70;0.60;;;19.00;21.80;;;;;;5114049;28;20159;-54
2021/03/13 08:16:18;;;;;;;0.80;0.60;;;19.00;21.70;;;;;;5129356;27;20638;-55
2021/03/13 08:18:53;;;;;;;0.65;0.63;;;19.00;21.70;;;;;;5113946;28;20197;-55
2021/03/13 08:21:21;;;;;;;1.17;0.60;;;19.00;21.60;;;;;;5114067;28;20212;-54
2021/03/13 08:23:52;;;;;;;0.70;0.50;;;19.00;21.60;;;;;;5113879;28;20152;-54
2021/03/13 08:26:20;;;;;;;0.60;0.40;;;19.00;21.60;;;;;;5120656;27;20157;-55
2021/03/13 08:28:46;;;;;;;0.98;0.75;;;19.00;21.60;;;;;;5134586;27;20157;-55
2021/03/13 08:31:32;;;;;;;0.80;0.60;;;19.00;21.60;;;;;;5134235;28;20656;-55
2021/03/13 08:34:09;;;;;;;0.60;0.50;;;19.00;21.50;;;;;;5113928;28;20184;-54
2021/03/13 08:36:47;;;;;;;0.85;0.60;;;19.10;21.60;;;;;;5112663;28;20163;-54
2021/03/13 08:39:36;;;;;;;0.82;0.60;;;19.00;21.50;;;;;;5112621;28;20662;-55
2021/03/13 08:42:01;;;;;;;0.88;0.68;;;19.10;21.60;;;;;;5109434;28;20201;-55
2021/03/13 08:44:37;;;;;;;0.97;0.60;;;19.10;21.70;;;;;;5112687;28;20202;-55
2021/03/13 08:47:09;;;;;;;0.85;0.80;;;19.10;21.70;;;;;;5113483;28;20427;-54
2021/03/13 08:49:39;;;;;;;1.02;0.60;;;19.10;21.60;;;;;;5109655;28;20192;-54
2021/03/13 08:52:05;;;;;;;0.95;0.68;;;19.10;21.50;;;;;;5095258;28;20160;-55
2021/03/13 08:54:40;;;;;;;0.63;0.60;;;19.10;21.50;;;;;;5112835;28;20164;-56
2021/03/13 08:57:39;;;;;;;0.70;0.70;;;19.10;21.50;;;;;;5113085;28;20161;-55
2021/03/13 09:00:11;;;;;;;2.58;0.68;;;19.10;21.40;;;;;;5094285;28;20199;-55
2021/03/13 09:02:40;;;;;;;1.10;0.50;;;19.20;21.50;;;;;;5097242;28;20273;-56
2021/03/13 09:05:11;;;;;;;0.88;0.75;;;19.20;21.40;;;;;;5097236;28;20158;-55
2021/03/13 09:07:37;;;;;;;0.82;0.60;;;19.20;21.40;;;;;;5097329;28;20602;-54
2021/03/13 09:10:05;;;;;;;0.70;0.65;;;19.20;21.40;;;;;;5114983;28;20179;-55
2021/03/13 09:12:33;;;;;;;0.80;0.60;;;19.20;21.30;;;;;;5117697;28;20509;-55
2021/03/13 09:15:03;;;;;;;0.90;0.55;;;19.20;21.30;;;;;;5117267;28;20243;-55
2021/03/13 09:17:30;;;;;;;0.60;0.50;;;19.20;21.30;;;;;;5117707;28;20153;-55
2021/03/13 09:20:02;;;;;;;0.95;0.50;;;19.20;21.20;;;;;;5117141;28;20228;-54
2021/03/13 09:22:31;;;;;;;1.40;0.52;;;19.30;21.30;;;;;;5117427;28;20193;-55
2021/03/13 09:25:02;;;;;;;0.60;0.50;;;19.30;21.20;;;;;;5117050;28;20168;-55
2021/03/13 09:27:38;;;;;;;0.82;0.75;;;19.30;21.10;;;;;;5117255;28;20169;-55
2021/03/13 09:30:12;;;;;;;1.38;0.70;;;19.30;21.00;;;;;;5116791;28;20157;-55
2021/03/13 09:32:42;;;;;;;1.40;0.75;;;19.40;21.00;;;;;;5117229;28;20157;-55
2021/03/13 09:35:09;;;;;;;1.20;0.70;;;19.40;21.00;;;;;;5116917;28;20164;-55
2021/03/13 09:37:37;;;;;;;0.93;0.80;;;19.40;21.00;;;;;;5117096;28;20161;-55
2021/03/13 09:40:21;;;;;;;0.60;0.55;;;19.40;21.00;;;;;;5116965;28;20218;-55
2021/03/13 09:42:49;;;;;;;0.85;0.60;;;18.00;19.90;;;;;;5116912;28;20161;-54
2021/03/13 09:45:23;;;;;;;0.80;0.60;;;19.40;20.80;;;;;;5116615;28;20161;-55
2021/03/13 09:47:56;;;;;;;0.90;0.80;;;19.40;20.80;;;;;;5116966;28;20160;-55
2021/03/13 09:50:30;;;;;;;1.55;0.90;;;19.40;20.80;;;;;;5116750;28;20232;-55
2021/03/13 09:52:56;;;;;;;1.05;0.85;;;19.40;20.80;;;;;;5116663;28;20164;-55
2021/03/13 09:55:24;;;;;;;0.98;0.70;;;19.50;20.80;;;;;;5098494;28;20157;-54
2021/03/13 09:57:52;;;;;;;0.70;0.60;;;19.50;20.70;;;;;;5116804;28;20689;-54
2021/03/13 10:00:30;;;;;;;0.60;0.50;;;19.50;20.70;;;;;;5115972;28;20181;-54
2021/03/13 10:02:58;;;;;;;0.70;0.50;;;19.50;20.60;;;;;;5116381;28;20157;-55
2021/03/13 10:05:27;;;;;;;1.00;0.60;;;19.60;20.60;;;;;;5116628;28;20168;-55
2021/03/13 10:07:53;;;;;;;0.70;0.70;;;19.60;20.60;;;;;;5116523;28;20150;-54
2021/03/13 10:10:27;;;;;;;1.13;0.70;;;19.60;20.60;;;;;;5116530;28;20188;-55
2021/03/13 10:12:54;;;;;;;1.30;0.70;;;19.50;20.50;;;;;;5115828;28;20391;-54
2021/03/13 10:15:30;;;;;;;1.05;0.60;;;19.50;20.50;;;;;;5115787;28;20160;-55
2021/03/13 10:18:05;;;;;;;0.77;0.70;;;19.50;20.50;;;;;;5116381;28;20152;-55
2021/03/13 10:20:36;;;;;;;1.75;0.70;;;19.50;20.50;;;;;;5115883;28;20208;-55
2021/03/13 10:23:09;;;;;;;1.63;1.05;;;19.50;20.50;;;;;;5116048;28;20154;-55
2021/03/13 10:25:36;;;;;;;0.95;0.73;;;19.50;20.60;;;;;;5115951;28;20224;-56
2021/03/13 10:28:29;;;;;;;1.00;0.80;;;19.50;20.50;;;;;;5116225;28;20249;-55
2021/03/13 10:31:29;;;;;;;1.48;0.70;;;19.50;20.60;;;;;;5105279;28;20255;-55
2021/03/13 10:33:55;;;;;;;1.20;0.95;;;19.50;20.60;;;;;;5104520;28;20215;-55
2021/03/13 10:36:44;;;;;;;0.80;0.70;;;20.20;21.00;;;;;;5115866;28;20247;-55
2021/03/13 10:39:10;;;;;;;1.25;0.80;;;19.50;20.60;;;;;;5115720;28;20163;-55
2021/03/13 10:41:36;;;;;;;1.00;0.80;;;19.50;20.60;;;;;;5115705;28;20272;-55
2021/03/13 10:44:03;;;;;;;0.83;0.70;;;19.50;20.60;;;;;;5115102;28;20189;-55
2021/03/13 10:46:37;;;;;;;1.20;0.70;;;19.50;20.60;;;;;;5115875;28;20157;-55
2021/03/13 10:49:04;;;;;;;0.93;0.77;;;19.50;20.60;;;;;;5115744;28;20656;-54
2021/03/13 10:51:43;;;;;;;1.30;1.20;;;19.50;20.60;;;;;;5115431;28;20240;-55
2021/03/13 10:54:29;;;;;;;1.25;0.75;;;19.50;20.60;;;;;;5115785;28;20220;-54
2021/03/13 10:56:55;;;;;;;1.40;0.80;;;19.50;20.50;;;;;;5115587;28;20149;-55
2021/03/13 10:59:34;;;;;;;0.77;0.60;;;19.50;20.60;;;;;;5115094;28;20158;-54
2021/03/13 11:02:00;;;;;;;0.90;0.80;;;19.50;20.60;;;;;;5115706;28;20238;-55
2021/03/13 11:04:25;;;;;;;1.93;0.87;;;19.50;20.60;;;;;;5115322;28;20505;-55
2021/03/13 11:06:57;;;;;;;1.57;0.97;;;19.40;20.60;;;;;;5115522;28;20176;-55
2021/03/13 11:09:23;;;;;;;0.70;0.52;;;19.40;20.50;;;;;;5115375;28;20632;-55
2021/03/13 11:11:49;;;;;;;0.80;0.80;;;19.40;20.50;;;;;;5115120;28;20156;-54
2021/03/13 11:14:14;;;;;;;0.97;0.70;;;19.40;20.60;;;;;;5114587;28;20165;-54
2021/03/13 11:16:44;;;;;;;1.07;0.80;;;19.50;20.60;;;;;;5115133;28;20162;-54
2021/03/13 11:19:11;;;;;;;2.13;0.90;;;19.40;20.50;;;;;;5115247;28;20180;-55
2021/03/13 11:21:37;;;;;;;1.10;0.80;;;19.40;20.50;;;;;;5114898;28;20220;-54
2021/03/13 11:24:03;;;;;;;1.53;0.60;;;19.40;20.50;;;;;;5113581;28;20498;-56
2021/03/13 11:26:29;;;;;;;0.80;0.70;;;19.40;20.50;;;;;;5114705;28;20415;-55
2021/03/13 11:28:55;;;;;;;1.47;0.80;;;19.40;21.00;;;;;;5114233;28;20727;-55
2021/03/13 11:31:21;;;;;;;0.80;0.80;;;19.40;20.50;;;;;;5114653;28;20157;-55
2021/03/13 11:33:47;;;;;;;0.60;0.50;;;19.40;20.50;;;;;;5114631;28;20244;-55
2021/03/13 11:36:14;;;;;;;0.93;0.88;;;19.40;20.50;;;;;;5115148;28;20381;-55
2021/03/13 11:38:39;;;;;;;1.10;0.70;;;19.40;20.50;;;;;;5114804;28;20157;-55
2021/03/13 11:41:14;;;;;;;1.60;0.73;;;19.40;20.50;;;;;;5114727;28;20195;-55
2021/03/13 11:43:43;;;;;;;1.83;0.85;;;19.40;20.50;;;;;;5114583;28;20159;-55
2021/03/13 11:46:10;;;;;;;1.10;0.60;;;19.40;20.40;;;;;;5095964;28;20458;-55
2021/03/13 11:48:36;;;;;;;0.93;0.85;;;19.40;20.50;;;;;;5114587;28;20157;-55
2021/03/13 11:51:02;;;;;;;0.80;0.60;;;19.50;20.60;;;;;;5114467;28;20164;-55
2021/03/13 11:53:28;;;;;;;0.85;0.73;;;19.50;20.50;;;;;;5114897;28;20244;-55
2021/03/13 11:55:54;;;;;;;1.10;0.80;;;19.50;20.50;;;;;;5114216;28;20208;-55
2021/03/13 11:58:22;;;;;;;1.20;0.70;;;19.40;20.40;;;;;;5114737;28;20692;-54
2021/03/13 12:00:48;;;;;;;0.98;0.73;;;19.50;20.50;;;;;;5113708;28;20188;-55
2021/03/13 12:03:17;;;;;;;1.10;0.90;;;19.50;20.50;;;;;;5114262;28;20194;-55
2021/03/13 12:05:43;;;;;;;1.02;0.90;;;19.50;20.50;;;;;;5114281;28;20161;-55
2021/03/13 12:08:16;;;;;;;1.00;0.70;;;19.40;20.40;;;;;;5114200;28;20183;-54
2021/03/13 12:10:41;;;;;;;2.25;0.80;;;19.50;20.50;;;;;;5114280;28;20494;-55
2021/03/13 12:13:07;;;;;;;1.10;0.70;;;19.50;20.50;;;;;;5114117;28;20700;-56
2021/03/13 12:15:35;;;;;;;4.00;0.93;;;19.50;20.50;;;;;;5095480;28;20176;-56
2021/03/13 12:18:01;;;;;;;0.88;0.63;;;19.50;20.50;;;;;;5096360;28;20154;-55
2021/03/13 12:20:27;;;;;;;1.43;0.70;;;19.00;20.10;;;;;;5083077;28;20224;-54
2021/03/13 12:22:53;;;;;;;0.70;0.70;;;19.50;20.50;;;;;;5073545;28;20155;-55
2021/03/13 12:25:19;;;;;;;1.20;0.90;;;19.50;20.50;;;;;;5073447;28;20233;-55
2021/03/13 12:27:45;;;;;;;0.80;0.80;;;19.50;20.40;;;;;;5073655;28;20237;-55
2021/03/13 12:30:12;;;;;;;0.80;0.80;;;19.50;20.50;;;;;;5072966;28;20155;-55
2021/03/13 12:32:39;;;;;;;0.93;0.82;;;19.50;20.50;;;;;;5073403;28;20154;-55
2021/03/13 12:35:09;;;;;;;1.80;0.80;;;19.50;20.40;;;;;;5072539;28;20155;-55
2021/03/13 12:37:36;;;;;;;0.90;0.68;;;19.50;20.40;;;;;;5073426;28;20150;-54
2021/03/13 12:40:05;;;;;;;0.73;0.73;;;19.50;20.40;;;;;;5073591;28;20181;-55
2021/03/13 12:42:31;;;;;;;1.45;0.65;;;19.50;20.40;;;;;;5072149;28;20514;-54
2021/03/13 12:44:57;;;;;;;1.10;0.60;;;19.50;20.30;;;;;;5072679;28;20629;-54
2021/03/13 12:47:22;;;;;;;0.90;0.70;;;19.50;20.30;;;;;;5105796;28;20170;-54
2021/03/13 12:49:48;;;;;;;1.60;0.90;;;19.50;20.30;;;;;;5073334;28;20161;-55
2021/03/13 12:52:14;;;;;;;0.80;0.80;;;19.50;20.30;;;;;;5073192;28;20163;-54
2021/03/13 12:54:39;;;;;;;0.90;0.60;;;19.50;20.20;;;;;;5073037;28;20229;-55
2021/03/13 12:57:06;;;;;;;1.20;0.80;;;19.50;20.20;;;;;;5073076;28;20246;-55
2021/03/13 12:59:31;;;;;;;0.90;0.73;;;19.50;20.20;;;;;;5072817;28;20622;-54
2021/03/13 13:01:57;;;;;;;1.13;0.70;;;19.50;20.30;;;;;;5072976;28;20188;-55
2021/03/13 13:04:23;;;;;;;1.10;0.77;;;19.50;20.20;;;;;;5073022;28;20553;-56